DW8626 Madrid ES current weather conditions

sailwx.info

Wind from 048 at 4 knots gusting 9

Air temperature 22.2° C
Dewpoint 9.7° C

Last reported at 2016-Jul-25 03:47 UTC.
Time now 2016-Jul-25 06:16 UTC

Location: N 40°29' W 003°43'.
View on Google Maps.

See reports from other nearby stations

  
Tides and Currents Weather Stations Pressure Air Temp Water Temp Dewpoint Dewpoint Depression Visibility Wind Speed Wind Dir Waves Ship Positions
date/time (UTC)wind fromknots sea level pressurealtimeterstation pressurevisibilityair tempwater tempwave heightnotes
2016-Jul-25 03:47 048 4 gusting 9 22.2
2016-Jul-25 03:32 052 7 gusting 12 22.2
2016-Jul-25 03:17 044 6 gusting 10 22.2
2016-Jul-25 03:02 050 6 gusting 9 22.2
2016-Jul-25 02:47 023 6 gusting 9 22.2
2016-Jul-25 02:32 026 4 gusting 6 22.8
2016-Jul-25 02:17 027 4 gusting 7 22.8
2016-Jul-25 02:02 015 3 gusting 8 23.3
2016-Jul-25 01:47 048 3 gusting 6 23.3
2016-Jul-25 01:32 004 2 gusting 12 23.9
2016-Jul-25 01:17 051 6 gusting 13 23.9
2016-Jul-25 01:02 040 8 gusting 14 24.4
2016-Jul-25 00:47 037 6 gusting 14 24.4
2016-Jul-25 00:32 043 6 gusting 14 25.0
2016-Jul-25 00:17 040 9 gusting 15 25.0
2016-Jul-25 00:02 043 6 gusting 14 25.0
2016-Jul-24 23:47 039 9 gusting 17 25.6
2016-Jul-24 23:32 040 6 gusting 11 26.1
2016-Jul-24 23:17 036 6 gusting 14 26.7
2016-Jul-24 23:02 014 5 gusting 13 26.7
2016-Jul-24 22:47 025 8 gusting 14 27.2
2016-Jul-24 22:32 064 6 gusting 13 27.2
2016-Jul-24 22:17 015 5 gusting 10 27.8
2016-Jul-24 22:02 343 5 gusting 9 28.3
2016-Jul-24 21:47 044 5 gusting 9 28.3
2016-Jul-24 21:32 032 5 gusting 10 28.9
2016-Jul-24 21:17 040 3 gusting 9 28.9
2016-Jul-24 21:02 063 6 gusting 11 28.9
2016-Jul-24 20:47 037 5 gusting 8 29.4
2016-Jul-24 20:32 074 30.0
2016-Jul-24 20:17 125 30.0
2016-Jul-24 20:02 095 30.0
2016-Jul-24 19:47 104 30.6
2016-Jul-24 19:32 119 0 gusting 2 31.1
2016-Jul-24 19:17 156 0 gusting 2 31.7
2016-Jul-24 19:02 102 1 gusting 3 31.7
2016-Jul-24 18:47 088 32.2
2016-Jul-24 18:32 008 31.7
2016-Jul-24 18:17 082 0 gusting 4 32.2
2016-Jul-24 18:02 021 1 gusting 2 32.2
2016-Jul-24 17:47 308 0 gusting 4 31.7
2016-Jul-24 17:32 072 32.2
2016-Jul-24 17:17 067 1 gusting 6 31.7
2016-Jul-24 17:02 347 4 gusting 8 32.2
2016-Jul-24 16:47 119 0 gusting 4 32.8
2016-Jul-24 16:32 088 32.8
2016-Jul-24 16:17 098 1 gusting 6 32.2
2016-Jul-24 16:02 086 3 gusting 6 31.7
2016-Jul-24 15:47 295 31.7
2016-Jul-24 15:32 139 4 gusting 9 31.7
2016-Jul-24 15:17 025 4 gusting 8 31.1
2016-Jul-24 15:02 119 1 gusting 5 31.7
2016-Jul-24 14:47 049 4 gusting 8 31.1
2016-Jul-24 14:32 095 1 gusting 7 31.1
2016-Jul-24 14:17 108 2 gusting 6 31.1
2016-Jul-24 14:02 119 4 gusting 7 31.1
2016-Jul-24 13:47 194 0 gusting 2 30.6
2016-Jul-24 13:32 329 2 gusting 8 29.4
2016-Jul-24 13:17 023 1 gusting 5 30.6
2016-Jul-24 13:02 144 0 gusting 4 30.6
2016-Jul-24 12:47 304 4 gusting 10 29.4
2016-Jul-24 12:32 066 28.9
2016-Jul-24 12:17 345 3 gusting 7 28.9
2016-Jul-24 12:02 059 3 gusting 7 28.9
2016-Jul-24 11:47 117 1 gusting 5 28.3
2016-Jul-24 11:32 053 3 gusting 6 28.3
2016-Jul-24 11:17 012 3 gusting 6 28.3
2016-Jul-24 11:02 133 0 gusting 5 27.8
2016-Jul-24 10:47 193 1 gusting 4 27.8
2016-Jul-24 10:32 104 27.2
2016-Jul-24 10:17 141 0 gusting 4 26.7
2016-Jul-24 10:02 056 2 gusting 5 26.1
2016-Jul-24 09:47 124 3 gusting 8 26.1
2016-Jul-24 09:32 015 1 gusting 7 24.4
2016-Jul-24 09:17 045 2 gusting 4 24.4
2016-Jul-24 09:02 013 0 gusting 4 25.0
2016-Jul-24 08:47 102 0 gusting 5 24.4
2016-Jul-24 08:32 023 5 gusting 8 23.3
2016-Jul-24 08:17 043 5 gusting 8 22.8
2016-Jul-24 08:02 029 3 gusting 8 22.2
2016-Jul-24 07:47 037 5 gusting 11 21.7
2016-Jul-24 07:32 051 6 gusting 9 21.1
2016-Jul-24 07:17 067 7 gusting 10 20.6
2016-Jul-24 07:02 039 6 gusting 12 20.6
2016-Jul-24 06:47 058 4 gusting 13 20.0
2016-Jul-24 06:32 044 5 gusting 13 20.0
2016-Jul-24 06:17 038 6 gusting 10 19.4
2016-Jul-24 06:02 044 4 gusting 12 19.4
2016-Jul-24 05:47 035 7 gusting 12 19.4
2016-Jul-24 05:32 023 5 gusting 11 18.9
2016-Jul-24 05:17 063 3 gusting 11 18.9
2016-Jul-24 05:02 040 7 gusting 11 18.9
2016-Jul-24 04:47 034 2 gusting 10 18.9
2016-Jul-24 04:32 045 5 gusting 11 18.9
2016-Jul-24 04:17 020 7 gusting 13 18.9
2016-Jul-24 04:02 014 6 gusting 13 18.9
2016-Jul-24 03:47 045 6 gusting 11 18.9
2016-Jul-24 03:32 032 4 gusting 12 18.9
2016-Jul-24 03:17 058 7 gusting 13 18.9
2016-Jul-24 03:02 044 5 gusting 11 18.9
2016-Jul-24 02:47 043 6 gusting 11 18.9
2016-Jul-24 02:32 032 6 gusting 12 19.4
2016-Jul-24 02:17 053 6 gusting 10 19.4
2016-Jul-24 02:02 030 6 gusting 9 19.4
2016-Jul-24 01:47 356 4 gusting 13 20.0
2016-Jul-24 01:32 023 3 gusting 13 20.0
2016-Jul-24 01:17 026 10 gusting 17 20.0
2016-Jul-24 01:02 020 3 gusting 16 20.0
2016-Jul-24 00:47 020 6 gusting 17 20.6
2016-Jul-24 00:32 063 5 gusting 13 20.6
2016-Jul-24 00:17 077 8 gusting 17 21.1
2016-Jul-24 00:02 018 6 gusting 13 21.1
2016-Jul-23 23:47 060 4 gusting 13 21.7
2016-Jul-23 23:32 035 4 gusting 15 21.7
2016-Jul-23 23:17 028 6 gusting 14 21.7
2016-Jul-23 23:02 068 6 gusting 16 22.2
2016-Jul-23 22:47 050 9 gusting 16 22.8
2016-Jul-23 22:32 036 8 gusting 19 22.8
2016-Jul-23 22:17 016 4 gusting 17 23.9
2016-Jul-23 22:02 051 9 gusting 16 24.4
2016-Jul-23 21:47 023 11 gusting 18 25.0
2016-Jul-23 21:32 026 7 gusting 14 25.6
2016-Jul-23 21:17 032 6 gusting 12 26.1
2016-Jul-23 21:02 043 4 gusting 7 26.7
2016-Jul-23 20:47 026 4 gusting 11 26.7
2016-Jul-23 20:32 044 5 gusting 10 27.2
2016-Jul-23 20:17 063 2 gusting 6 27.2
2016-Jul-23 20:02 097 1 gusting 7 27.8
2016-Jul-23 19:47 046 2 gusting 6 27.8
2016-Jul-23 19:32 043 0 gusting 6 28.3
2016-Jul-23 19:17 099 0 gusting 10 28.9
2016-Jul-23 19:02 046 29.4
2016-Jul-23 18:47 088 3 gusting 7 28.9
2016-Jul-23 18:32 059 3 gusting 9 29.4
2016-Jul-23 18:17 101 3 gusting 6 29.4
2016-Jul-23 18:02 055 1 gusting 9 29.4
2016-Jul-23 17:47 046 4 gusting 8 30.0
2016-Jul-23 17:32 072 2 gusting 6 29.4
2016-Jul-23 17:17 050 3 gusting 6 29.4
2016-Jul-23 17:02 091 2 gusting 6 29.4
2016-Jul-23 16:47 077 2 gusting 7 29.4
2016-Jul-23 16:32 295 0 gusting 6 29.4
2016-Jul-23 16:17 076 2 gusting 6 29.4
2016-Jul-23 16:02 115 1 gusting 11 29.4
2016-Jul-23 15:47 141 3 gusting 12 29.4
2016-Jul-23 15:32 176 6 gusting 11 28.9
2016-Jul-23 15:17 044 4 gusting 11 28.9
2016-Jul-23 15:02 342 3 gusting 12 28.9
2016-Jul-23 14:47 025 5 gusting 16 28.3
2016-Jul-23 14:32 050 11 gusting 19 28.3
2016-Jul-23 14:17 057 10 gusting 15 28.3
2016-Jul-23 14:02 082 6 gusting 13 28.3
2016-Jul-23 13:47 060 2 gusting 17 27.8
2016-Jul-23 13:32 054 1 gusting 10 27.8
2016-Jul-23 13:17 096 9 gusting 16 27.2
2016-Jul-23 13:02 056 2 gusting 13 27.2
2016-Jul-23 12:47 063 4 gusting 13 26.7
2016-Jul-23 12:32 028 5 gusting 19 26.7
2016-Jul-23 12:17 108 7 gusting 11 26.1
2016-Jul-23 12:02 037 8 gusting 19 26.1
2016-Jul-23 11:47 043 10 gusting 16 25.6
2016-Jul-23 11:32 041 6 gusting 15 25.6
2016-Jul-23 11:17 026 5 gusting 15 25.0
2016-Jul-23 11:02 068 5 gusting 18 23.9
2016-Jul-23 10:47 048 8 gusting 13 23.9
2016-Jul-23 10:32 354 12 gusting 16 23.9
2016-Jul-23 10:17 347 6 gusting 15 23.3
2016-Jul-23 10:02 029 7 gusting 14 23.3
2016-Jul-23 09:47 077 5 gusting 19 22.8
2016-Jul-23 09:32 025 7 gusting 17 22.2
2016-Jul-23 09:17 052 7 gusting 18 21.7
2016-Jul-23 09:02 058 6 gusting 13 21.7
2016-Jul-23 08:47 060 10 gusting 14 20.6
2016-Jul-23 08:32 023 7 gusting 12 20.6
2016-Jul-23 08:17 023 7 gusting 14 20.0
2016-Jul-23 08:02 066 6 gusting 13 20.0
2016-Jul-23 07:47 036 7 gusting 14 18.9
2016-Jul-23 07:32 058 7 gusting 13 18.9
2016-Jul-23 07:17 328 5 gusting 13 18.9
2016-Jul-23 07:02 043 13 gusting 18 18.3
2016-Jul-23 06:47 029 6 gusting 11 18.3
2016-Jul-23 06:32 085 7 gusting 13 17.8
2016-Jul-23 06:17 354 5 gusting 13 17.8
2016-Jul-23 06:02 036 6 gusting 11 17.8